Time;durP1;ratioP1;P1;durP2;ratioP2;P2;SDS_P1;SDS_P2;PMS_P1;PMS_P2;Temp;Humidity;BMP_temperature;BMP_pressure;BME280_temperature;BME280_humidity;BME280_pressure;Samples;Min_cycle;Max_cycle;Signal;HPM_P1;HPM_P2
2023/03/25 00:01:32;;;;;;;24.60;3.45;;;8.70;99.90;;;;;;4965378;28;20030;-77
2023/03/25 00:03:59;;;;;;;25.58;3.42;;;8.60;99.90;;;;;;4979435;28;20474;-77
2023/03/25 00:06:27;;;;;;;20.30;2.50;;;8.60;99.90;;;;;;4961592;28;20038;-78
2023/03/25 00:08:56;;;;;;;23.73;3.25;;;8.60;99.90;;;;;;4961386;28;20205;-76
2023/03/25 00:11:22;;;;;;;24.52;3.08;;;8.60;99.90;;;;;;4964676;28;20328;-77
2023/03/25 00:13:49;;;;;;;19.08;3.25;;;8.60;99.90;;;;;;4961221;28;20035;-76
2023/03/25 00:16:15;;;;;;;20.13;2.50;;;8.60;99.90;;;;;;4978938;28;20890;-77
2023/03/25 00:18:41;;;;;;;15.38;2.25;;;8.50;99.90;;;;;;4960023;28;20030;-76
2023/03/25 00:21:10;;;;;;;19.05;3.28;;;8.50;99.90;;;;;;4979390;28;20458;-78
2023/03/25 00:23:37;;;;;;;18.80;2.80;;;8.50;99.90;;;;;;4949276;28;20034;-77
2023/03/25 00:26:04;;;;;;;24.58;3.50;;;8.40;99.90;;;;;;4947612;28;20042;-77
2023/03/25 00:28:32;;;;;;;19.00;2.78;;;8.40;99.90;;;;;;4960505;28;20067;-77
2023/03/25 00:31:02;;;;;;;16.90;2.80;;;8.40;99.90;;;;;;4978704;28;20085;-77
2023/03/25 00:33:28;;;;;;;17.20;2.73;;;8.40;99.90;;;;;;4979269;28;20831;-77
2023/03/25 00:35:58;;;;;;;23.08;3.53;;;8.50;99.90;;;;;;4982196;28;20041;-77
2023/03/25 00:38:32;;;;;;;23.60;2.88;;;8.60;99.90;;;;;;4951235;28;20369;-78
2023/03/25 00:41:06;;;;;;;17.23;2.92;;;8.50;99.90;;;;;;4964003;28;20062;-78
2023/03/25 00:43:32;;;;;;;19.60;2.30;;;8.60;99.90;;;;;;4959368;28;20072;-77
2023/03/25 00:45:58;;;;;;;17.05;2.60;;;8.60;99.90;;;;;;4961725;28;20046;-78
2023/03/25 00:48:23;;;;;;;24.75;3.55;;;8.70;99.90;;;;;;4963119;28;20065;-78
2023/03/25 00:50:49;;;;;;;24.77;3.30;;;8.70;99.90;;;;;;4964421;28;20821;-78
2023/03/25 00:53:14;;;;;;;21.90;3.55;;;8.70;99.90;;;;;;4980596;28;20026;-77
2023/03/25 00:55:40;;;;;;;19.40;2.80;;;8.80;99.90;;;;;;4980878;28;20062;-79
2023/03/25 00:58:06;;;;;;;18.17;2.60;;;8.80;99.90;;;;;;4981882;28;20033;-77
2023/03/25 01:00:31;;;;;;;26.77;4.40;;;8.80;99.90;;;;;;4980857;28;20109;-77
2023/03/25 01:02:57;;;;;;;24.25;3.03;;;8.80;99.90;;;;;;4961166;28;20027;-77
2023/03/25 01:05:23;;;;;;;23.25;2.58;;;8.70;99.90;;;;;;4962923;28;20415;-77
2023/03/25 01:07:50;;;;;;;21.17;3.35;;;8.70;99.90;;;;;;4978274;28;20034;-78
2023/03/25 01:10:16;;;;;;;27.60;4.05;;;8.70;99.90;;;;;;4978667;28;20030;-78
2023/03/25 01:12:41;;;;;;;21.75;3.08;;;8.70;99.90;;;;;;4980494;28;20082;-77
2023/03/25 01:15:09;;;;;;;24.65;2.80;;;8.70;99.90;;;;;;4965952;28;20121;-77
2023/03/25 01:17:35;;;;;;;25.65;3.10;;;8.60;99.90;;;;;;4960350;28;20115;-77
2023/03/25 01:20:00;;;;;;;19.63;2.65;;;8.60;99.90;;;;;;4960086;28;20106;-76
2023/03/25 01:22:26;;;;;;;22.13;2.85;;;8.60;99.90;;;;;;4979203;28;20663;-77
2023/03/25 01:24:51;;;;;;;22.67;2.90;;;8.50;99.90;;;;;;4965796;28;20031;-77
2023/03/25 01:27:17;;;;;;;21.70;3.03;;;8.50;99.90;;;;;;4949585;28;20039;-77
2023/03/25 01:29:43;;;;;;;20.10;3.30;;;8.40;99.90;;;;;;4960407;28;20034;-77
2023/03/25 01:32:08;;;;;;;16.40;2.30;;;8.40;99.90;;;;;;4980049;28;20073;-77
2023/03/25 01:34:37;;;;;;;17.08;2.88;;;8.30;99.90;;;;;;4959975;28;20121;-78
2023/03/25 01:37:03;;;;;;;25.20;4.00;;;8.30;99.90;;;;;;4972476;28;20094;-77
2023/03/25 01:39:29;;;;;;;22.60;2.38;;;8.30;99.90;;;;;;4978810;28;20565;-77
2023/03/25 01:41:54;;;;;;;22.98;2.80;;;8.20;99.90;;;;;;4959372;28;20090;-78
2023/03/25 01:44:23;;;;;;;28.02;2.53;;;8.20;99.90;;;;;;4952215;28;20059;-76
2023/03/25 01:46:51;;;;;;;24.48;3.15;;;8.20;99.90;;;;;;4952941;28;20746;-76
2023/03/25 01:49:43;;;;;;;20.42;2.63;;;8.20;99.90;;;;;;4956442;28;20027;-77
2023/03/25 01:52:11;;;;;;;20.67;3.53;;;8.20;99.90;;;;;;4962495;28;20133;-77
2023/03/25 01:54:38;;;;;;;16.50;2.63;;;8.20;99.90;;;;;;4962242;28;20034;-77
2023/03/25 01:57:05;;;;;;;16.55;2.30;;;8.20;99.90;;;;;;4981381;28;20653;-77
2023/03/25 01:59:31;;;;;;;17.05;2.47;;;8.20;99.90;;;;;;4978561;28;20142;-76
2023/03/25 02:02:01;;;;;;;25.17;2.83;;;8.20;99.90;;;;;;4949267;28;20105;-76
2023/03/25 02:04:37;;;;;;;13.52;2.30;;;8.10;99.90;;;;;;4975626;28;20030;-78
2023/03/25 02:07:07;;;;;;;27.38;3.00;;;8.00;99.90;;;;;;4961842;28;20070;-77
2023/03/25 02:09:33;;;;;;;16.30;2.28;;;8.00;99.90;;;;;;4962630;28;20113;-78
2023/03/25 02:11:59;;;;;;;15.82;2.70;;;8.00;99.90;;;;;;4977082;28;20042;-77
2023/03/25 02:14:28;;;;;;;15.52;3.00;;;8.00;99.90;;;;;;4963007;28;20498;-77
2023/03/25 02:17:29;;;;;;;15.82;2.38;;;7.90;99.90;;;;;;4981110;28;20113;-78
2023/03/25 02:20:27;;;;;;;14.68;1.63;;;7.90;99.90;;;;;;4929036;29;20537;-78
2023/03/25 02:23:27;;;;;;;14.73;2.15;;;7.90;99.90;;;;;;4944188;28;20034;-77
2023/03/25 02:26:40;;;;;;;19.50;2.42;;;7.80;99.90;;;;;;4949724;28;20047;-81
2023/03/25 02:29:32;;;;;;;19.42;2.85;;;7.90;99.90;;;;;;4945229;28;20186;-79
2023/03/25 02:32:28;;;;;;;14.27;2.45;;;7.90;99.90;;;;;;4932020;28;20816;-75
2023/03/25 02:35:09;;;;;;;16.27;2.13;;;7.90;99.90;;;;;;4970453;28;20919;-79
2023/03/25 02:38:00;;;;;;;16.50;3.28;;;7.90;99.90;;;;;;4958938;28;20042;-78
2023/03/25 02:40:32;;;;;;;17.45;2.50;;;7.90;99.90;;;;;;4965954;28;20031;-76
2023/03/25 02:43:04;;;;;;;22.88;3.03;;;7.90;99.90;;;;;;4957840;28;20042;-76
2023/03/25 02:45:44;;;;;;;21.35;1.80;;;7.90;99.90;;;;;;4958241;28;20046;-77
2023/03/25 02:48:17;;;;;;;24.15;3.25;;;7.90;99.90;;;;;;4973700;28;20526;-76
2023/03/25 02:50:50;;;;;;;18.85;3.78;;;7.90;99.90;;;;;;4975056;28;20026;-77
2023/03/25 02:53:24;;;;;;;19.40;2.33;;;7.80;99.90;;;;;;4976823;28;20034;-78
2023/03/25 02:55:51;;;;;;;15.32;2.28;;;7.80;99.90;;;;;;4978313;28;20033;-76
2023/03/25 02:58:20;;;;;;;10.13;1.85;;;7.80;99.90;;;;;;4977554;28;20043;-78
2023/03/25 03:00:49;;;;;;;14.85;1.77;;;7.70;99.90;;;;;;4975279;28;20466;-76
2023/03/25 03:03:14;;;;;;;16.38;2.25;;;7.80;99.90;;;;;;4976961;28;20586;-77
2023/03/25 03:05:45;;;;;;;14.85;2.05;;;7.80;99.90;;;;;;4968548;28;20054;-77
2023/03/25 03:08:43;;;;;;;16.63;2.33;;;7.80;99.90;;;;;;4956413;28;20035;-76
2023/03/25 03:11:11;;;;;;;20.33;2.05;;;7.70;99.90;;;;;;4960604;28;20486;-75
2023/03/25 03:13:43;;;;;;;21.20;2.70;;;7.80;99.90;;;;;;4979055;28;20470;-75
2023/03/25 03:16:20;;;;;;;16.30;2.78;;;7.80;99.90;;;;;;4978121;28;20057;-76
2023/03/25 03:19:12;;;;;;;20.13;2.35;;;7.80;99.90;;;;;;4977291;28;20030;-75
2023/03/25 03:21:55;;;;;;;9.95;1.55;;;7.70;99.90;;;;;;4973396;28;20026;-74
2023/03/25 03:24:46;;;;;;;21.42;2.92;;;7.70;99.90;;;;;;4962083;28;20531;-77
2023/03/25 03:27:15;;;;;;;18.73;2.38;;;7.70;99.90;;;;;;4975628;28;20096;-78
2023/03/25 03:29:45;;;;;;;15.63;1.90;;;7.70;99.90;;;;;;4983651;28;20034;-76
2023/03/25 03:32:28;;;;;;;17.65;2.08;;;7.80;99.90;;;;;;4980436;28;20112;-77
2023/03/25 03:34:58;;;;;;;14.38;2.42;;;7.90;99.90;;;;;;4977449;28;20030;-78
2023/03/25 03:37:33;;;;;;;17.88;1.70;;;7.90;99.90;;;;;;4978008;28;20109;-78
2023/03/25 03:40:01;;;;;;;14.98;2.03;;;7.80;99.90;;;;;;4959041;28;20846;-77
2023/03/25 03:42:36;;;;;;;14.52;1.90;;;7.90;99.90;;;;;;4977861;28;20339;-77
2023/03/25 03:45:09;;;;;;;19.60;1.80;;;7.80;99.90;;;;;;5003182;28;20045;-77
2023/03/25 03:47:40;;;;;;;22.35;2.30;;;7.80;99.90;;;;;;4988798;28;20041;-77
2023/03/25 03:50:19;;;;;;;16.45;2.25;;;7.80;99.90;;;;;;4985324;28;20541;-78
2023/03/25 03:52:51;;;;;;;22.35;2.97;;;7.80;99.90;;;;;;5001286;28;20124;-77
2023/03/25 03:55:27;;;;;;;17.60;2.58;;;7.80;99.90;;;;;;4984282;28;20180;-77
2023/03/25 03:58:01;;;;;;;18.25;2.95;;;7.80;99.90;;;;;;4997457;28;20065;-76
2023/03/25 04:00:35;;;;;;;16.10;2.25;;;7.80;99.90;;;;;;4973772;28;20552;-77
2023/03/25 04:03:13;;;;;;;18.05;2.72;;;7.80;99.90;;;;;;4996530;28;20037;-77
2023/03/25 04:05:42;;;;;;;19.08;3.58;;;7.80;99.90;;;;;;5002879;28;20037;-77
2023/03/25 04:08:14;;;;;;;17.10;2.15;;;7.80;99.90;;;;;;4981621;28;20054;-79
2023/03/25 04:11:04;;;;;;;16.65;2.72;;;7.80;99.90;;;;;;4983047;28;20018;-76
2023/03/25 04:13:35;;;;;;;18.08;2.28;;;7.80;99.90;;;;;;4980304;28;20048;-77
2023/03/25 04:16:01;;;;;;;20.33;2.58;;;7.90;99.90;;;;;;5000887;28;20030;-77
2023/03/25 04:18:27;;;;;;;16.08;2.75;;;7.90;99.90;;;;;;4966961;28;20054;-76
2023/03/25 04:20:54;;;;;;;19.83;2.75;;;7.80;99.90;;;;;;4999809;28;20034;-78
2023/03/25 04:23:20;;;;;;;16.50;2.65;;;7.80;99.90;;;;;;5000989;28;20041;-77
2023/03/25 04:25:48;;;;;;;16.40;2.10;;;7.80;99.90;;;;;;4982926;28;20071;-77
2023/03/25 04:28:16;;;;;;;21.15;3.13;;;7.80;99.90;;;;;;5001515;28;20782;-77
2023/03/25 04:30:44;;;;;;;13.48;2.10;;;7.80;99.90;;;;;;4985709;28;20623;-77
2023/03/25 04:33:11;;;;;;;21.52;3.47;;;7.80;99.90;;;;;;4983232;28;20038;-76
2023/03/25 04:35:37;;;;;;;19.98;2.42;;;7.70;99.90;;;;;;4995457;28;20021;-77
2023/03/25 04:38:04;;;;;;;17.83;2.47;;;7.80;99.90;;;;;;5000181;28;20074;-76
2023/03/25 04:40:30;;;;;;;15.40;2.00;;;7.90;99.90;;;;;;5001638;28;20053;-76
2023/03/25 04:42:56;;;;;;;27.17;3.78;;;7.90;99.90;;;;;;4999736;28;20132;-76
2023/03/25 04:45:24;;;;;;;21.42;2.63;;;7.90;99.90;;;;;;4983157;28;20671;-76
2023/03/25 04:47:52;;;;;;;22.35;3.10;;;7.90;99.90;;;;;;4983663;28;20064;-76
2023/03/25 04:50:26;;;;;;;21.63;2.20;;;7.90;99.90;;;;;;4996563;28;20038;-76
2023/03/25 04:52:53;;;;;;;14.40;2.42;;;7.90;99.90;;;;;;4995572;28;20048;-77
2023/03/25 04:55:19;;;;;;;18.02;2.38;;;8.00;99.90;;;;;;5000846;28;20518;-78
2023/03/25 04:57:47;;;;;;;18.23;2.65;;;7.90;99.90;;;;;;4999060;28;20053;-76
2023/03/25 05:00:14;;;;;;;22.33;2.63;;;8.00;99.90;;;;;;4982768;28;20067;-76
2023/03/25 05:02:45;;;;;;;28.88;3.92;;;7.90;99.90;;;;;;4983989;28;20022;-77
2023/03/25 05:05:17;;;;;;;15.00;2.10;;;7.90;99.90;;;;;;4981161;28;20084;-77
2023/03/25 05:07:48;;;;;;;19.85;2.33;;;7.90;99.90;;;;;;4979931;28;20550;-77
2023/03/25 05:10:14;;;;;;;21.02;2.83;;;7.90;99.90;;;;;;4988725;28;20029;-76
2023/03/25 05:12:40;;;;;;;23.58;3.38;;;8.00;99.90;;;;;;4999404;28;20037;-76
2023/03/25 05:15:07;;;;;;;18.70;2.33;;;8.00;99.90;;;;;;4983646;28;20129;-77
2023/03/25 05:17:32;;;;;;;25.83;3.17;;;8.10;99.90;;;;;;4993729;28;20049;-76
2023/03/25 05:19:58;;;;;;;23.95;2.85;;;8.10;99.90;;;;;;4988686;28;20026;-76
2023/03/25 05:22:23;;;;;;;25.75;3.17;;;8.10;99.90;;;;;;4996644;28;20041;-76
2023/03/25 05:24:52;;;;;;;23.52;3.90;;;8.10;99.90;;;;;;4991523;28;20027;-77
2023/03/25 05:27:19;;;;;;;23.08;2.78;;;8.20;99.90;;;;;;4988269;28;20030;-75
2023/03/25 05:29:45;;;;;;;18.10;2.90;;;8.20;99.90;;;;;;4997332;28;20036;-75
2023/03/25 05:32:16;;;;;;;21.80;2.85;;;8.30;99.90;;;;;;4989056;28;20018;-75
2023/03/25 05:34:45;;;;;;;20.73;3.08;;;8.30;99.90;;;;;;4998580;28;20044;-75
2023/03/25 05:37:13;;;;;;;24.52;2.60;;;8.30;99.90;;;;;;4972863;28;20089;-76
2023/03/25 05:39:38;;;;;;;29.60;3.33;;;8.20;99.90;;;;;;5000359;28;20096;-77
2023/03/25 05:42:04;;;;;;;28.50;3.20;;;8.10;99.90;;;;;;4997106;28;20034;-76
2023/03/25 05:44:29;;;;;;;17.20;3.10;;;8.20;99.90;;;;;;5000132;28;20100;-76
2023/03/25 05:46:55;;;;;;;20.77;3.10;;;8.10;99.90;;;;;;5001104;28;20065;-77
2023/03/25 05:49:21;;;;;;;24.05;3.63;;;8.20;99.90;;;;;;4998921;28;20041;-75
2023/03/25 05:51:48;;;;;;;27.15;3.55;;;8.20;99.90;;;;;;5003206;28;20034;-75
2023/03/25 05:54:14;;;;;;;27.60;3.30;;;8.20;99.90;;;;;;5011390;28;20136;-75
2023/03/25 05:56:41;;;;;;;19.88;2.70;;;8.20;99.90;;;;;;4998753;28;20560;-75
2023/03/25 05:59:07;;;;;;;28.02;3.08;;;8.30;99.90;;;;;;4994473;28;20383;-76
2023/03/25 06:01:36;;;;;;;23.83;3.08;;;8.40;99.90;;;;;;4997322;28;20496;-76
2023/03/25 06:04:02;;;;;;;24.90;3.08;;;8.50;99.90;;;;;;4996750;28;20034;-76
2023/03/25 06:06:29;;;;;;;24.52;3.63;;;8.60;99.90;;;;;;4995623;28;20071;-75
2023/03/25 06:08:54;;;;;;;23.80;3.72;;;8.70;99.90;;;;;;4996736;28;20021;-75
2023/03/25 06:11:20;;;;;;;28.02;3.65;;;8.80;99.90;;;;;;4998127;28;20521;-76
2023/03/25 06:13:50;;;;;;;26.55;3.92;;;8.80;99.90;;;;;;4997832;28;20032;-75
2023/03/25 06:16:21;;;;;;;21.95;2.65;;;8.80;99.90;;;;;;4990815;28;20038;-74
2023/03/25 06:18:54;;;;;;;23.85;3.20;;;8.80;99.90;;;;;;4992084;28;20401;-76
2023/03/25 06:21:25;;;;;;;24.73;3.17;;;8.80;99.90;;;;;;4997355;28;20053;-75
2023/03/25 06:23:52;;;;;;;39.63;3.80;;;8.80;99.90;;;;;;4997909;28;20105;-75
2023/03/25 06:26:20;;;;;;;25.10;2.70;;;8.90;99.90;;;;;;4978304;28;20098;-75
2023/03/25 06:28:46;;;;;;;27.13;3.95;;;9.00;99.90;;;;;;4995626;28;20060;-75
2023/03/25 06:31:17;;;;;;;28.98;3.05;;;9.10;99.90;;;;;;4978555;28;20037;-75
2023/03/25 06:33:44;;;;;;;24.98;3.30;;;9.20;99.90;;;;;;4994276;28;20101;-75
2023/03/25 06:36:11;;;;;;;19.58;2.47;;;9.30;99.90;;;;;;4978694;28;20149;-75
2023/03/25 06:38:38;;;;;;;19.05;2.75;;;9.30;99.90;;;;;;5002223;28;20033;-74
2023/03/25 06:41:06;;;;;;;22.60;3.15;;;9.30;99.90;;;;;;4998604;28;20069;-75
2023/03/25 06:43:31;;;;;;;36.97;3.58;;;9.30;99.90;;;;;;4997685;28;20038;-74
2023/03/25 06:45:58;;;;;;;20.92;3.13;;;9.30;99.90;;;;;;4997275;28;20049;-75
2023/03/25 06:48:24;;;;;;;26.25;3.60;;;9.30;99.90;;;;;;4978059;28;20041;-75
2023/03/25 06:50:49;;;;;;;24.50;3.22;;;9.40;99.90;;;;;;4974832;28;20401;-75
2023/03/25 06:53:15;;;;;;;22.02;2.88;;;9.60;99.90;;;;;;4994804;28;20033;-74
2023/03/25 06:55:41;;;;;;;28.83;3.42;;;9.80;99.90;;;;;;5000133;28;20061;-76
2023/03/25 06:58:06;;;;;;;28.73;3.80;;;9.90;99.90;;;;;;4984396;28;20577;-75
2023/03/25 07:00:32;;;;;;;22.75;3.28;;;10.10;99.90;;;;;;4994587;28;20053;-74
2023/03/25 07:02:58;;;;;;;19.13;2.50;;;10.20;99.90;;;;;;4997720;28;20497;-75
2023/03/25 07:05:24;;;;;;;21.90;2.83;;;11.00;99.90;;;;;;4997164;28;20088;-76
2023/03/25 07:07:50;;;;;;;23.65;2.85;;;11.20;99.90;;;;;;5000757;28;20061;-75
2023/03/25 07:10:16;;;;;;;23.00;3.15;;;11.30;99.90;;;;;;5000893;28;20025;-75
2023/03/25 07:12:42;;;;;;;25.80;3.78;;;11.30;99.90;;;;;;4997867;28;20124;-76
2023/03/25 07:15:08;;;;;;;15.57;2.60;;;11.60;99.90;;;;;;5004567;28;20036;-76
2023/03/25 07:17:34;;;;;;;21.48;3.05;;;12.10;99.90;;;;;;5002521;28;20033;-76
2023/03/25 07:20:00;;;;;;;20.83;2.65;;;12.10;99.20;;;;;;4983243;28;20121;-75
2023/03/25 07:22:25;;;;;;;22.40;3.58;;;12.00;99.90;;;;;;4985331;28;20038;-75
2023/03/25 07:24:51;;;;;;;23.35;3.33;;;11.80;99.90;;;;;;4987513;28;21101;-75
2023/03/25 07:27:17;;;;;;;22.02;2.88;;;11.50;99.90;;;;;;4997585;28;20041;-76
2023/03/25 07:29:42;;;;;;;21.30;2.60;;;11.30;99.90;;;;;;4999800;28;20029;-76
2023/03/25 07:32:08;;;;;;;29.33;3.50;;;11.10;99.90;;;;;;4993998;28;20378;-75
2023/03/25 07:34:35;;;;;;;22.75;2.72;;;11.00;99.90;;;;;;4998390;28;20393;-75
2023/03/25 07:37:00;;;;;;;26.65;3.40;;;10.80;99.90;;;;;;4997608;28;20865;-74
2023/03/25 07:39:26;;;;;;;27.58;3.40;;;10.70;99.90;;;;;;5002187;28;20034;-75
2023/03/25 07:41:52;;;;;;;24.25;3.17;;;10.50;99.90;;;;;;4989600;28;20022;-76
2023/03/25 07:44:20;;;;;;;22.63;3.03;;;10.60;99.90;;;;;;4982761;28;20449;-76
2023/03/25 07:46:46;;;;;;;19.33;3.42;;;10.80;99.90;;;;;;4982943;28;20057;-75
2023/03/25 07:49:12;;;;;;;16.08;2.03;;;11.20;99.90;;;;;;4997228;28;20125;-76
2023/03/25 07:51:37;;;;;;;14.77;2.88;;;12.40;99.90;;;;;;5002002;28;20091;-76
2023/03/25 07:54:03;;;;;;;15.50;2.38;;;13.10;97.90;;;;;;5001958;28;20026;-76
2023/03/25 07:56:29;;;;;;;16.95;2.47;;;13.50;90.70;;;;;;4980681;28;20033;-76
2023/03/25 07:58:54;;;;;;;16.65;2.90;;;13.30;90.70;;;;;;4979367;28;20030;-75
2023/03/25 08:01:20;;;;;;;18.15;2.15;;;13.00;91.60;;;;;;4987340;28;20060;-76
2023/03/25 08:03:46;;;;;;;19.17;2.55;;;12.60;92.90;;;;;;4995394;28;20030;-76
2023/03/25 08:06:11;;;;;;;15.52;2.22;;;13.00;95.00;;;;;;4995776;28;20114;-77
2023/03/25 08:08:37;;;;;;;15.13;2.25;;;13.80;88.70;;;;;;4983307;28;20568;-76
2023/03/25 08:11:03;;;;;;;19.58;2.45;;;14.50;83.40;;;;;;5002111;28;20446;-77
2023/03/25 08:13:29;;;;;;;11.65;1.98;;;15.10;74.50;;;;;;4999424;28;20101;-76
2023/03/25 08:15:55;;;;;;;15.05;2.45;;;15.10;65.30;;;;;;4990966;28;20030;-76
2023/03/25 08:18:21;;;;;;;14.00;2.85;;;14.90;70.60;;;;;;4983575;28;20121;-76
2023/03/25 08:20:50;;;;;;;16.90;2.15;;;16.20;68.30;;;;;;4982223;28;20034;-74
2023/03/25 08:23:18;;;;;;;13.18;2.03;;;16.50;60.40;;;;;;4982621;28;20037;-75
2023/03/25 08:25:48;;;;;;;12.07;2.58;;;16.40;59.50;;;;;;4980971;28;20537;-77
2023/03/25 08:28:21;;;;;;;14.70;2.20;;;15.90;61.60;;;;;;4997343;28;20037;-76
2023/03/25 08:30:48;;;;;;;16.83;2.20;;;15.30;62.90;;;;;;4985641;28;20101;-77
2023/03/25 08:33:15;;;;;;;14.15;2.00;;;14.60;70.70;;;;;;4997104;28;20030;-77
2023/03/25 08:35:41;;;;;;;17.38;1.70;;;14.80;72.90;;;;;;4990024;28;20030;-78
2023/03/25 08:38:07;;;;;;;16.00;3.13;;;14.80;67.50;;;;;;4983809;28;20053;-77
2023/03/25 08:40:36;;;;;;;13.25;2.03;;;14.60;69.80;;;;;;5001793;28;20038;-77
2023/03/25 08:43:05;;;;;;;15.77;2.15;;;14.70;72.70;;;;;;4999220;28;20520;-77
2023/03/25 08:45:33;;;;;;;14.32;2.47;;;14.80;72.40;;;;;;5001599;28;20533;-77
2023/03/25 08:48:00;;;;;;;13.15;1.90;;;14.70;70.60;;;;;;5001315;28;20038;-77
2023/03/25 08:50:26;;;;;;;16.58;2.30;;;14.50;71.70;;;;;;4965617;28;20030;-77
2023/03/25 08:52:56;;;;;;;13.52;1.90;;;14.60;68.10;;;;;;4985097;28;20034;-77
2023/03/25 08:55:23;;;;;;;11.13;1.70;;;14.40;69.60;;;;;;4999247;28;20604;-77
2023/03/25 08:57:49;;;;;;;18.05;2.45;;;14.30;73.00;;;;;;4980113;28;20421;-77
2023/03/25 09:00:15;;;;;;;9.93;1.58;;;14.30;72.50;;;;;;4998595;28;20026;-77
2023/03/25 09:02:41;;;;;;;11.23;1.80;;;14.30;75.10;;;;;;4993680;28;20028;-77
2023/03/25 09:05:09;;;;;;;13.60;1.83;;;14.50;73.60;;;;;;4991038;28;20109;-76
2023/03/25 09:07:35;;;;;;;12.98;1.92;;;15.40;73.20;;;;;;4993309;28;20090;-77
2023/03/25 09:10:01;;;;;;;9.68;1.48;;;17.50;60.20;;;;;;4973225;28;20227;-76
2023/03/25 09:12:27;;;;;;;8.82;1.60;;;19.50;52.80;;;;;;4975106;28;20036;-77
2023/03/25 09:14:53;;;;;;;6.80;1.48;;;22.30;48.00;;;;;;4999232;28;20030;-77
2023/03/25 09:17:19;;;;;;;13.30;1.88;;;24.50;41.40;;;;;;4997640;28;20398;-78
2023/03/25 09:19:45;;;;;;;6.63;1.23;;;26.60;37.30;;;;;;5000319;28;20061;-77
2023/03/25 09:22:11;;;;;;;8.80;1.60;;;26.20;34.30;;;;;;4996091;28;20026;-78
2023/03/25 09:24:36;;;;;;;5.65;1.27;;;24.50;35.10;;;;;;4997407;28;20370;-76
2023/03/25 09:27:02;;;;;;;5.82;1.25;;;22.50;38.40;;;;;;4997225;28;20122;-78
2023/03/25 09:29:28;;;;;;;10.93;1.63;;;20.70;42.90;;;;;;4998341;28;20029;-78
2023/03/25 09:31:57;;;;;;;5.53;1.60;;;20.00;44.40;;;;;;4983886;28;20112;-77
2023/03/25 09:34:23;;;;;;;6.88;1.40;;;19.60;46.00;;;;;;4998415;28;20502;-77
2023/03/25 09:36:48;;;;;;;5.72;1.20;;;19.30;48.10;;;;;;4965424;28;20030;-76
2023/03/25 09:39:14;;;;;;;12.27;1.90;;;18.80;47.30;;;;;;4989433;28;20045;-77
2023/03/25 09:42:16;;;;;;;8.60;1.27;;;19.10;49.30;;;;;;4976700;28;21772;-78
2023/03/25 09:45:16;;;;;;;6.63;1.40;;;19.60;47.00;;;;;;4970151;28;20212;-78
2023/03/25 09:47:54;;;;;;;7.05;1.35;;;19.90;45.70;;;;;;4965118;28;20781;-78
2023/03/25 09:50:21;;;;;;;7.13;1.75;;;19.20;47.20;;;;;;4951201;28;20030;-78
2023/03/25 09:53:09;;;;;;;8.65;1.45;;;18.80;48.20;;;;;;4969791;28;20058;-78
2023/03/25 09:55:40;;;;;;;10.50;1.95;;;18.60;50.00;;;;;;4974320;28;20042;-78
2023/03/25 09:58:33;;;;;;;8.60;1.90;;;18.20;50.40;;;;;;4966133;28;20034;-79
2023/03/25 10:01:16;;;;;;;6.38;1.08;;;17.80;51.00;;;;;;4952041;28;20043;-79
2023/03/25 10:03:54;;;;;;;9.25;1.40;;;18.20;52.10;;;;;;4972979;28;20038;-79
2023/03/25 10:06:25;;;;;;;7.93;1.40;;;18.80;51.50;;;;;;4962173;28;20117;-78
2023/03/25 10:09:03;;;;;;;7.53;1.50;;;18.80;50.50;;;;;;4963687;28;20537;-78
2023/03/25 10:12:03;;;;;;;4.80;1.15;;;18.60;50.30;;;;;;4956285;28;20513;-77
2023/03/25 10:14:34;;;;;;;8.38;1.70;;;17.90;50.60;;;;;;4963842;28;20122;-78
2023/03/25 10:17:13;;;;;;;6.90;1.95;;;18.10;52.60;;;;;;4939596;28;20042;-79
2023/03/25 10:19:42;;;;;;;8.77;1.33;;;17.90;51.40;;;;;;4939834;28;20035;-78
2023/03/25 10:22:16;;;;;;;5.63;1.13;;;17.30;53.30;;;;;;4941337;28;20023;-78
2023/03/25 10:24:51;;;;;;;10.27;1.75;;;17.20;55.20;;;;;;4946010;28;20030;-78
2023/03/25 10:27:19;;;;;;;10.00;1.65;;;16.70;55.00;;;;;;4963361;28;20046;-78
2023/03/25 10:29:59;;;;;;;10.85;1.80;;;16.90;56.10;;;;;;4973180;28;20120;-78
2023/03/25 10:32:39;;;;;;;10.07;1.30;;;16.90;56.00;;;;;;4967281;28;20513;-78
2023/03/25 10:35:11;;;;;;;8.38;1.60;;;17.30;55.70;;;;;;4946661;28;20046;-78
2023/03/25 10:37:40;;;;;;;11.15;1.90;;;17.20;55.20;;;;;;4965662;28;20054;-77
2023/03/25 10:40:20;;;;;;;10.30;1.52;;;17.00;54.60;;;;;;4960184;28;22147;-79
2023/03/25 10:42:54;;;;;;;12.13;1.70;;;16.70;55.90;;;;;;4971351;28;20779;-78
2023/03/25 10:45:22;;;;;;;10.38;1.55;;;16.30;58.10;;;;;;4964242;28;20057;-78
2023/03/25 10:47:50;;;;;;;8.93;1.30;;;16.20;59.80;;;;;;4980830;28;20030;-78
2023/03/25 10:50:18;;;;;;;6.80;1.30;;;16.20;59.90;;;;;;4966635;28;20614;-79
2023/03/25 10:52:46;;;;;;;13.75;1.95;;;16.30;61.00;;;;;;4985873;28;20037;-78
2023/03/25 10:55:34;;;;;;;10.00;1.60;;;17.10;61.30;;;;;;4977655;28;20057;-79
2023/03/25 10:58:00;;;;;;;9.45;1.17;;;18.00;56.20;;;;;;4972292;28;20554;-78
2023/03/25 11:00:29;;;;;;;5.97;1.27;;;18.70;51.80;;;;;;4992632;28;20030;-78
2023/03/25 11:02:55;;;;;;;8.98;1.10;;;19.20;49.30;;;;;;4989210;28;20093;-78
2023/03/25 11:05:24;;;;;;;5.45;1.05;;;19.20;48.90;;;;;;4966518;28;20034;-78
2023/03/25 11:07:54;;;;;;;7.70;1.17;;;18.50;48.60;;;;;;4984963;28;20026;-78
2023/03/25 11:10:24;;;;;;;5.85;1.20;;;18.20;50.20;;;;;;4996782;28;20038;-78
2023/03/25 11:12:52;;;;;;;5.97;1.27;;;17.50;50.20;;;;;;4998695;28;20080;-78
2023/03/25 11:15:21;;;;;;;4.97;1.00;;;17.10;54.90;;;;;;4997269;28;20034;-77
2023/03/25 11:17:57;;;;;;;7.05;1.25;;;17.20;54.80;;;;;;4994580;28;20048;-78
2023/03/25 11:20:34;;;;;;;11.02;2.03;;;17.10;53.30;;;;;;4992533;28;20180;-78
2023/03/25 11:23:07;;;;;;;7.18;1.13;;;17.20;55.10;;;;;;4989040;28;20026;-78
2023/03/25 11:25:40;;;;;;;11.05;1.50;;;17.70;55.50;;;;;;4990061;28;20030;-78
2023/03/25 11:28:13;;;;;;;7.40;1.30;;;18.40;54.20;;;;;;4987454;28;20137;-78
2023/03/25 11:31:11;;;;;;;5.30;0.90;;;18.70;50.00;;;;;;4987357;28;20049;-78
2023/03/25 11:33:37;;;;;;;5.45;1.13;;;18.20;50.80;;;;;;4989904;28;20545;-78
2023/03/25 11:36:25;;;;;;;5.80;1.23;;;18.50;52.90;;;;;;4988439;28;20490;-79
2023/03/25 11:39:07;;;;;;;5.63;1.30;;;19.00;50.20;;;;;;4990130;28;20030;-78
2023/03/25 11:41:35;;;;;;;4.97;1.15;;;19.10;48.40;;;;;;4980664;28;20068;-78
2023/03/25 11:44:04;;;;;;;7.13;1.60;;;18.60;49.40;;;;;;4991120;28;20533;-78
2023/03/25 11:46:32;;;;;;;9.45;1.30;;;18.20;50.10;;;;;;5001141;28;20096;-77
2023/03/25 11:49:08;;;;;;;6.85;1.10;;;17.70;51.90;;;;;;4999105;28;20030;-77
2023/03/25 11:51:34;;;;;;;8.32;1.63;;;17.60;53.20;;;;;;4983590;28;20125;-77
2023/03/25 11:54:13;;;;;;;6.68;1.40;;;17.60;52.90;;;;;;4992964;28;20032;-79
2023/03/25 11:56:41;;;;;;;10.43;1.73;;;17.60;51.90;;;;;;4995396;28;20026;-78
2023/03/25 11:59:16;;;;;;;9.35;1.45;;;17.30;51.90;;;;;;4999215;28;20067;-79
2023/03/25 12:01:46;;;;;;;10.10;1.20;;;16.80;53.30;;;;;;4992559;28;20030;-77
2023/03/25 12:04:17;;;;;;;6.35;0.98;;;16.90;55.80;;;;;;4988674;28;20629;-77
2023/03/25 12:07:00;;;;;;;7.05;1.27;;;17.50;55.60;;;;;;4984272;28;20044;-78
2023/03/25 12:09:28;;;;;;;6.70;1.23;;;17.40;51.00;;;;;;5002734;28;20128;-78
2023/03/25 12:12:17;;;;;;;9.57;1.40;;;17.40;52.00;;;;;;4974262;28;20129;-78
2023/03/25 12:15:01;;;;;;;10.10;1.70;;;17.40;53.10;;;;;;4971899;28;20144;-79
2023/03/25 12:17:58;;;;;;;13.23;2.10;;;17.30;55.20;;;;;;4997652;28;20022;-79
2023/03/25 12:20:45;;;;;;;9.02;1.70;;;17.50;59.70;;;;;;4970317;28;20030;-78
2023/03/25 12:23:13;;;;;;;14.07;2.33;;;18.60;60.30;;;;;;4989313;28;20038;-79
2023/03/25 12:25:42;;;;;;;15.65;2.38;;;19.00;56.90;;;;;;4988029;28;20054;-79
2023/03/25 12:28:10;;;;;;;15.70;2.33;;;19.90;59.80;;;;;;5000145;28;20026;-78
2023/03/25 12:30:36;;;;;;;13.18;1.83;;;20.40;53.00;;;;;;4978430;28;20026;-78
2023/03/25 12:33:15;;;;;;;10.68;1.95;;;19.90;51.30;;;;;;4975764;28;20318;-78
2023/03/25 12:35:46;;;;;;;13.07;2.30;;;19.00;53.40;;;;;;4993842;28;20076;-78
2023/03/25 12:38:35;;;;;;;12.43;1.85;;;18.00;64.80;;;;;;4984549;28;20080;-79
2023/03/25 12:41:28;;;;;;;13.65;1.67;;;18.20;73.70;;;;;;4979952;28;20031;-77
2023/03/25 12:43:59;;;;;;;12.38;1.95;;;18.60;71.30;;;;;;4985401;28;20077;-78
2023/03/25 12:46:50;;;;;;;10.75;2.00;;;18.70;68.70;;;;;;4994177;28;20073;-78
2023/03/25 12:50:02;;;;;;;9.38;1.65;;;19.10;63.30;;;;;;4998755;28;20033;-77
2023/03/25 12:52:40;;;;;;;9.15;1.35;;;19.40;57.60;;;;;;4974373;28;20088;-78
2023/03/25 12:55:14;;;;;;;9.32;1.55;;;19.30;56.60;;;;;;5001809;28;20374;-78
2023/03/25 12:58:18;;;;;;;7.72;1.38;;;19.30;53.90;;;;;;4984502;28;20069;-78
2023/03/25 13:00:56;;;;;;;9.73;1.27;;;18.60;56.00;;;;;;4927116;28;20117;-78
2023/03/25 13:03:33;;;;;;;8.68;1.30;;;18.70;57.10;;;;;;5000320;28;20068;-78